Terminal Aerodrome Forecast
Issued by NWS

Home | Current Version | Previous Version | Graphics & Text | Print | Product List | Glossary On
Versions: 1 2 3 4 5 6 7 8 9 10 11 12 13 14 15 16 17 18 19 20 21 22
897
FTUS43 KLOT 190209 AAA
TAFDPA
TAF AMD
KDPA 190209Z 1902/1924 35012KT 1SM -DZSN BR OVC008
     FM190700 35012G18KT P6SM BKN015 OVC030
     FM191300 34012G18KT P6SM SCT030=

USA.gov is the U.S. government's official web portal to all federal, state and local government web resources and services.